createdAt,value
2023-03-18T00:01:20.444Z,11.10
2023-03-18T00:03:49.351Z,13.43
2023-03-18T00:06:22.072Z,11.47
2023-03-18T00:08:53.174Z,10.53
2023-03-18T00:11:25.437Z,10.57
2023-03-18T00:13:54.555Z,9.73
2023-03-18T00:16:23.759Z,10.93
2023-03-18T00:18:53.575Z,8.90
2023-03-18T00:21:25.153Z,11.77
2023-03-18T00:23:58.953Z,10.63
2023-03-18T00:26:30.254Z,11.33
2023-03-18T00:28:59.512Z,8.87
2023-03-18T00:31:30.911Z,9.57
2023-03-18T00:34:02.475Z,9.60
2023-03-18T00:36:34.838Z,10.80
2023-03-18T00:39:03.860Z,9.27
2023-03-18T00:41:36.898Z,13.30
2023-03-18T00:44:05.848Z,13.10
2023-03-18T00:46:36.655Z,9.70
2023-03-18T00:49:08.046Z,10.00
2023-03-18T00:51:42.157Z,10.47
2023-03-18T00:54:13.108Z,9.47
2023-03-18T00:56:42.343Z,10.57
2023-03-18T00:59:11.987Z,10.67
2023-03-18T01:01:41.358Z,9.33
2023-03-18T01:04:10.258Z,9.73
2023-03-18T01:06:40.290Z,8.50
2023-03-18T01:09:11.965Z,7.33
2023-03-18T01:11:40.516Z,5.73
2023-03-18T01:14:08.870Z,6.27
2023-03-18T01:16:37.144Z,6.77
2023-03-18T01:19:05.382Z,7.17
2023-03-18T01:21:34.105Z,6.03
2023-03-18T01:24:04.663Z,7.60
2023-03-18T01:26:33.562Z,7.07
2023-03-18T01:29:02.933Z,6.67
2023-03-18T01:31:31.238Z,9.40
2023-03-18T01:33:59.905Z,8.63
2023-03-18T01:36:28.624Z,7.97
2023-03-18T01:38:57.998Z,6.73
2023-03-18T01:41:27.898Z,7.50
2023-03-18T01:43:56.022Z,10.20
2023-03-18T01:46:37.674Z,8.80
2023-03-18T01:49:10.470Z,9.93
2023-03-18T01:51:41.246Z,8.30
2023-03-18T01:54:11.151Z,11.40
2023-03-18T01:56:45.462Z,10.73
2023-03-18T01:59:15.642Z,9.93
2023-03-18T02:01:49.530Z,13.40
2023-03-18T02:04:19.372Z,11.50
2023-03-18T02:06:47.975Z,8.17
2023-03-18T02:09:16.440Z,11.03
2023-03-18T02:11:50.228Z,11.17
2023-03-18T02:14:22.006Z,11.43
2023-03-18T02:16:57.401Z,13.17
2023-03-18T02:19:38.509Z,12.40
2023-03-18T02:22:17.357Z,11.87
2023-03-18T02:24:55.828Z,9.50
2023-03-18T02:27:28.428Z,12.37
2023-03-18T02:30:01.344Z,14.10
2023-03-18T02:32:31.248Z,14.70
2023-03-18T02:35:02.611Z,13.50
2023-03-18T02:37:30.928Z,15.43
2023-03-18T02:40:14.110Z,16.90
2023-03-18T02:42:44.842Z,16.40
2023-03-18T02:45:24.021Z,12.67
2023-03-18T02:47:54.196Z,14.50
2023-03-18T02:50:22.527Z,14.53
2023-03-18T02:52:51.714Z,14.13
2023-03-18T02:55:21.301Z,13.53
2023-03-18T02:57:51.132Z,12.63
2023-03-18T03:00:19.913Z,13.80
2023-03-18T03:02:48.312Z,15.03
2023-03-18T03:05:16.863Z,16.63
2023-03-18T03:07:45.734Z,15.50
2023-03-18T03:10:14.702Z,12.97
2023-03-18T03:12:43.876Z,14.97
2023-03-18T03:15:14.688Z,13.50
2023-03-18T03:17:43.187Z,13.33
2023-03-18T03:20:14.069Z,14.47
2023-03-18T03:22:43.011Z,14.90
2023-03-18T03:25:11.924Z,14.93
2023-03-18T03:27:40.341Z,16.90
2023-03-18T03:30:13.261Z,15.93
2023-03-18T03:32:43.183Z,15.30
2023-03-18T03:35:14.269Z,14.03
2023-03-18T03:37:44.080Z,13.20
2023-03-18T03:40:14.977Z,15.97
2023-03-18T03:42:45.195Z,12.87
2023-03-18T03:45:16.856Z,15.47
2023-03-18T03:47:47.741Z,15.23
2023-03-18T03:50:18.135Z,17.73
2023-03-18T03:52:47.264Z,14.40
2023-03-18T03:55:17.713Z,16.17
2023-03-18T03:57:46.477Z,13.27
2023-03-18T04:00:18.687Z,14.57
2023-03-18T04:02:51.069Z,13.67
2023-03-18T04:05:21.426Z,14.37
2023-03-18T04:07:50.109Z,13.90
2023-03-18T04:10:20.426Z,16.60
2023-03-18T04:12:49.965Z,17.60
2023-03-18T04:15:20.200Z,15.17
2023-03-18T04:17:50.360Z,13.10
2023-03-18T04:20:19.245Z,17.37
2023-03-18T04:22:47.443Z,15.80
2023-03-18T04:25:16.230Z,14.07
2023-03-18T04:27:45.118Z,15.33
2023-03-18T04:30:16.814Z,14.80
2023-03-18T04:32:46.319Z,13.60
2023-03-18T04:35:20.065Z,14.20
2023-03-18T04:37:50.092Z,18.10
2023-03-18T04:40:20.137Z,13.03
2023-03-18T04:42:49.461Z,19.53
2023-03-18T04:45:18.861Z,14.50
2023-03-18T04:47:47.342Z,15.73
2023-03-18T04:50:17.889Z,12.33
2023-03-18T04:52:46.468Z,14.13
2023-03-18T04:55:18.222Z,14.67
2023-03-18T04:57:46.411Z,15.33
2023-03-18T05:00:21.611Z,13.77
2023-03-18T05:02:49.870Z,18.87
2023-03-18T05:05:20.195Z,20.40
2023-03-18T05:07:48.694Z,11.90
2023-03-18T05:10:17.140Z,18.00
2023-03-18T05:12:45.313Z,14.67
2023-03-18T05:15:17.165Z,17.00
2023-03-18T05:17:46.122Z,17.33
2023-03-18T05:20:15.157Z,13.47
2023-03-18T05:22:45.230Z,17.53
2023-03-18T05:25:14.359Z,19.57
2023-03-18T05:27:43.094Z,13.53
2023-03-18T05:30:12.820Z,13.13
2023-03-18T05:32:41.774Z,13.73
2023-03-18T05:35:11.518Z,15.53
2023-03-18T05:37:39.894Z,15.73
2023-03-18T05:40:12.161Z,15.23
2023-03-18T05:42:55.465Z,14.60
2023-03-18T05:45:24.881Z,15.67
2023-03-18T05:47:53.796Z,12.87
2023-03-18T05:50:30.377Z,15.87
2023-03-18T05:52:58.872Z,22.10
2023-03-18T05:55:29.848Z,21.27
2023-03-18T05:57:59.291Z,19.87
2023-03-18T06:00:28.876Z,16.50
2023-03-18T06:02:58.432Z,17.57
2023-03-18T06:05:28.758Z,16.97
2023-03-18T06:07:58.317Z,16.83
2023-03-18T06:10:26.825Z,16.57
2023-03-18T06:12:57.166Z,16.27
2023-03-18T06:15:25.846Z,15.63
2023-03-18T06:17:54.429Z,15.93
2023-03-18T06:20:23.582Z,12.03
2023-03-18T06:22:52.178Z,16.97
2023-03-18T06:25:21.957Z,15.13
2023-03-18T06:27:50.577Z,13.67
2023-03-18T06:30:21.029Z,17.93
2023-03-18T06:32:49.632Z,16.23
2023-03-18T06:35:21.130Z,18.83
2023-03-18T06:37:50.431Z,14.20
2023-03-18T06:40:18.685Z,16.67
2023-03-18T06:42:47.021Z,14.07
2023-03-18T06:45:15.600Z,15.00
2023-03-18T06:47:46.699Z,19.00
2023-03-18T06:50:15.524Z,13.03
2023-03-18T06:52:43.781Z,14.40
2023-03-18T06:55:12.499Z,15.27
2023-03-18T06:57:41.776Z,16.83
2023-03-18T07:00:12.110Z,14.07
2023-03-18T07:02:42.100Z,16.43
2023-03-18T07:05:14.029Z,14.53
2023-03-18T07:07:45.125Z,14.40
2023-03-18T07:10:22.121Z,14.43
2023-03-18T07:12:52.399Z,14.10
2023-03-18T07:15:22.695Z,14.03
2023-03-18T07:17:52.544Z,15.63
2023-03-18T07:20:24.257Z,11.87
2023-03-18T07:22:53.425Z,15.93
2023-03-18T07:25:23.137Z,12.77
2023-03-18T07:27:52.228Z,14.23
2023-03-18T07:30:21.635Z,11.40
2023-03-18T07:32:51.392Z,13.10
2023-03-18T07:35:19.883Z,12.67
2023-03-18T07:37:50.217Z,12.47
2023-03-18T07:40:18.620Z,9.67
2023-03-18T07:42:48.291Z,15.03
2023-03-18T07:45:17.040Z,10.93
2023-03-18T07:47:47.877Z,14.93
2023-03-18T07:50:16.431Z,10.47
2023-03-18T07:52:44.945Z,8.40
2023-03-18T07:55:15.070Z,10.87
2023-03-18T07:57:43.901Z,11.77
2023-03-18T08:00:14.761Z,10.90
2023-03-18T08:02:43.093Z,12.97
2023-03-18T08:05:12.192Z,10.17
2023-03-18T08:07:40.588Z,8.83
2023-03-18T08:10:10.617Z,11.80
2023-03-18T08:12:52.675Z,11.43
2023-03-18T08:15:22.078Z,10.73
2023-03-18T08:17:52.739Z,9.90
2023-03-18T08:20:21.740Z,10.57
2023-03-18T08:22:52.005Z,10.13
2023-03-18T08:25:22.313Z,9.37
2023-03-18T08:27:52.533Z,11.37
2023-03-18T08:30:21.221Z,9.20
2023-03-18T08:32:49.687Z,10.00
2023-03-18T08:35:20.240Z,12.27
2023-03-18T08:37:51.496Z,10.30
2023-03-18T08:40:20.917Z,12.30
2023-03-18T08:42:49.362Z,9.40
2023-03-18T08:45:22.882Z,9.10
2023-03-18T08:47:52.507Z,10.90
2023-03-18T08:50:21.226Z,14.67
2023-03-18T08:52:49.500Z,10.17
2023-03-18T08:55:18.488Z,15.40
2023-03-18T08:57:47.667Z,15.03
2023-03-18T09:00:19.356Z,11.07
2023-03-18T09:02:49.191Z,15.30
2023-03-18T09:05:18.404Z,11.43
2023-03-18T09:07:46.964Z,9.43
2023-03-18T09:10:17.927Z,12.80
2023-03-18T09:12:46.904Z,10.80
2023-03-18T09:15:17.548Z,11.73
2023-03-18T09:17:59.857Z,10.20
2023-03-18T09:20:30.567Z,9.73
2023-03-18T09:23:00.994Z,12.87
2023-03-18T09:25:31.068Z,11.53
2023-03-18T09:28:01.057Z,13.77
2023-03-18T09:30:30.347Z,10.40
2023-03-18T09:33:01.204Z,8.17
2023-03-18T09:35:31.952Z,9.37
2023-03-18T09:38:02.295Z,9.97
2023-03-18T09:40:33.115Z,7.90
2023-03-18T09:43:19.459Z,10.63
2023-03-18T09:46:00.716Z,9.17
2023-03-18T09:49:04.740Z,9.77
2023-03-18T09:51:50.190Z,9.40
2023-03-18T09:54:25.711Z,8.80
2023-03-18T09:56:54.938Z,10.80
2023-03-18T09:59:28.869Z,9.60
2023-03-18T10:02:00.178Z,9.47
2023-03-18T10:04:35.430Z,9.67
2023-03-18T10:07:14.441Z,9.87
2023-03-18T10:09:46.323Z,11.00
2023-03-18T10:12:23.711Z,9.00
2023-03-18T10:14:59.375Z,7.60
2023-03-18T10:17:32.758Z,8.27
2023-03-18T10:20:04.714Z,6.20
2023-03-18T10:22:51.612Z,10.00
2023-03-18T10:25:27.785Z,10.27
2023-03-18T10:28:08.866Z,9.00
2023-03-18T10:30:51.892Z,6.50
2023-03-18T10:33:33.735Z,9.67
2023-03-18T10:36:07.886Z,8.20
2023-03-18T10:38:42.834Z,9.40
2023-03-18T10:41:19.532Z,11.63
2023-03-18T10:43:52.203Z,8.63
2023-03-18T10:46:22.229Z,9.03
2023-03-18T10:48:56.840Z,8.73
2023-03-18T10:51:31.911Z,6.83
2023-03-18T10:54:10.172Z,7.07
2023-03-18T10:56:38.834Z,7.47
2023-03-18T10:59:13.859Z,6.93
2023-03-18T11:01:43.046Z,8.97
2023-03-18T11:04:16.637Z,8.40
2023-03-18T11:06:49.663Z,7.07
2023-03-18T11:09:23.760Z,8.43
2023-03-18T11:11:58.778Z,7.00
2023-03-18T11:14:31.135Z,5.37
2023-03-18T11:17:01.739Z,5.03
2023-03-18T11:19:33.457Z,6.23
2023-03-18T11:22:06.039Z,5.20
2023-03-18T11:24:42.821Z,5.77
2023-03-18T11:27:44.108Z,6.57
2023-03-18T11:30:32.752Z,7.40
2023-03-18T11:33:06.176Z,5.10
2023-03-18T11:35:41.027Z,7.30
2023-03-18T11:38:16.630Z,8.13
2023-03-18T11:40:48.506Z,4.97
2023-03-18T11:43:23.318Z,7.23
2023-03-18T11:45:58.179Z,6.47
2023-03-18T11:48:34.277Z,6.30
2023-03-18T11:51:14.249Z,5.40
2023-03-18T11:53:54.906Z,4.73
2023-03-18T11:56:36.496Z,3.60
2023-03-18T11:59:28.214Z,9.00
2023-03-18T12:02:06.412Z,5.13
2023-03-18T12:05:08.942Z,4.43
2023-03-18T12:07:52.170Z,4.93
2023-03-18T12:10:27.304Z,5.50
2023-03-18T12:13:07.822Z,3.77
2023-03-18T12:15:53.281Z,5.33
2023-03-18T12:18:36.242Z,5.60
2023-03-18T12:21:16.721Z,5.43
2023-03-18T12:24:11.428Z,6.43
2023-03-18T12:26:51.838Z,5.53
2023-03-18T12:33:11.669Z,6.40
2023-03-18T12:35:51.125Z,8.53
2023-03-18T12:38:56.200Z,3.70
2023-03-18T12:41:36.763Z,4.77
2023-03-18T12:44:25.643Z,6.87
2023-03-18T12:47:00.130Z,7.33
2023-03-18T12:49:36.314Z,4.30
2023-03-18T12:52:09.904Z,6.17
2023-03-18T12:54:45.215Z,4.97
2023-03-18T12:57:22.275Z,6.17
2023-03-18T12:59:57.971Z,6.60
2023-03-18T13:02:45.337Z,4.87
2023-03-18T13:05:42.265Z,5.73
2023-03-18T13:08:43.159Z,6.27
2023-03-18T13:11:25.135Z,5.27
2023-03-18T13:14:01.241Z,6.23
2023-03-18T13:16:33.741Z,6.20
2023-03-18T13:19:04.719Z,4.67
2023-03-18T13:21:41.413Z,4.00
2023-03-18T13:24:44.932Z,5.47
2023-03-18T13:27:33.523Z,5.57
2023-03-18T13:30:08.830Z,4.60
2023-03-18T13:32:59.289Z,7.77
2023-03-18T13:35:51.526Z,5.30
2023-03-18T13:38:43.466Z,5.53
2023-03-18T13:41:32.659Z,3.70
2023-03-18T13:44:07.363Z,5.23
2023-03-18T13:46:36.716Z,5.00
2023-03-18T13:49:22.024Z,4.60
2023-03-18T13:51:54.723Z,7.33
2023-03-18T13:54:24.967Z,3.83
2023-03-18T13:56:55.956Z,4.67
2023-03-18T13:59:52.995Z,4.70
2023-03-18T14:02:45.784Z,3.83
2023-03-18T14:05:40.209Z,5.13
2023-03-18T14:08:38.418Z,5.60
2023-03-18T14:11:50.625Z,6.27
2023-03-18T14:15:06.215Z,5.87
2023-03-18T14:17:47.785Z,3.30
2023-03-18T14:20:29.314Z,5.73
2023-03-18T14:23:19.360Z,4.37
2023-03-18T14:25:54.825Z,4.60
2023-03-18T14:28:30.241Z,4.27
2023-03-18T14:31:14.418Z,5.37
2023-03-18T14:34:04.905Z,5.27
2023-03-18T14:37:02.358Z,4.33
2023-03-18T14:39:38.250Z,5.87
2023-03-18T14:42:16.907Z,5.23
2023-03-18T14:44:51.111Z,3.77
2023-03-18T14:47:37.566Z,3.47
2023-03-18T14:50:16.430Z,4.97
2023-03-18T14:52:49.068Z,4.97
2023-03-18T14:55:21.758Z,4.90
2023-03-18T14:57:50.130Z,4.27
2023-03-18T15:00:21.696Z,5.70
2023-03-18T15:03:01.708Z,5.30
2023-03-18T15:05:36.976Z,6.17
2023-03-18T15:08:11.839Z,4.73
2023-03-18T15:10:41.876Z,7.00
2023-03-18T15:13:14.992Z,5.07
2023-03-18T15:15:44.802Z,3.87
2023-03-18T15:18:22.979Z,3.53
2023-03-18T15:20:55.729Z,3.60
2023-03-18T15:23:31.176Z,5.97
2023-03-18T15:25:59.321Z,3.90
2023-03-18T15:28:30.706Z,7.10
2023-03-18T15:31:01.633Z,3.60
2023-03-18T15:33:38.426Z,3.77
2023-03-18T15:36:16.696Z,5.87
2023-03-18T15:38:49.143Z,6.27
2023-03-18T15:41:21.867Z,5.93
2023-03-18T15:43:52.722Z,5.63
2023-03-18T15:46:26.261Z,4.43
2023-03-18T15:48:56.967Z,3.83
2023-03-18T15:51:30.264Z,3.60
2023-03-18T15:54:01.708Z,7.10
2023-03-18T15:56:32.122Z,3.83
2023-03-18T15:59:16.385Z,2.50
2023-03-18T16:01:47.301Z,5.07
2023-03-18T16:04:17.996Z,4.53
2023-03-18T16:06:48.218Z,7.10
2023-03-18T16:09:18.861Z,3.10
2023-03-18T16:11:50.722Z,4.37
2023-03-18T16:14:21.999Z,4.75
2023-03-18T16:16:51.696Z,4.53
2023-03-18T16:19:26.278Z,6.05
2023-03-18T16:21:58.446Z,4.43
2023-03-18T16:24:29.030Z,3.80
2023-03-18T16:26:58.101Z,3.47
2023-03-18T16:29:30.194Z,3.47
2023-03-18T16:31:58.708Z,4.67
2023-03-18T16:34:28.084Z,3.70
2023-03-18T16:36:58.430Z,4.13
2023-03-18T16:39:34.158Z,2.53
2023-03-18T16:42:03.330Z,4.53
2023-03-18T16:44:32.130Z,3.77
2023-03-18T16:47:00.690Z,4.73
2023-03-18T16:49:33.367Z,4.00
2023-03-18T16:52:03.124Z,5.40
2023-03-18T16:54:34.592Z,4.57
2023-03-18T16:57:04.814Z,4.07
2023-03-18T16:59:35.357Z,5.07
2023-03-18T17:02:04.724Z,7.07
2023-03-18T17:04:34.920Z,4.60
2023-03-18T17:07:07.766Z,6.43
2023-03-18T17:09:36.172Z,5.53
2023-03-18T17:12:08.114Z,3.60
2023-03-18T17:14:42.162Z,4.47
2023-03-18T17:17:21.643Z,3.73
2023-03-18T17:19:52.797Z,5.03
2023-03-18T17:22:24.319Z,6.57
2023-03-18T17:24:55.232Z,5.17
2023-03-18T17:27:25.709Z,6.43
2023-03-18T17:29:55.369Z,3.87
2023-03-18T17:32:23.513Z,4.57
2023-03-18T17:34:53.152Z,7.87
2023-03-18T17:37:23.748Z,11.03
2023-03-18T17:39:52.378Z,19.90
2023-03-18T17:42:30.408Z,20.70
2023-03-18T17:45:05.228Z,9.97
2023-03-18T17:47:41.288Z,7.27
2023-03-18T17:50:18.304Z,11.03
2023-03-18T17:52:51.436Z,12.27
2023-03-18T17:55:22.645Z,5.17
2023-03-18T17:57:52.618Z,5.97
2023-03-18T18:00:25.033Z,6.43
2023-03-18T18:02:55.662Z,5.83
2023-03-18T18:05:25.056Z,2.63
2023-03-18T18:07:55.114Z,6.50
2023-03-18T18:10:23.487Z,4.47
2023-03-18T18:12:51.644Z,5.80
2023-03-18T18:15:25.639Z,5.17
2023-03-18T18:17:54.994Z,6.03
2023-03-18T18:20:24.314Z,18.97
2023-03-18T18:22:56.124Z,18.50
2023-03-18T18:25:29.915Z,11.97
2023-03-18T18:27:58.363Z,3.70
2023-03-18T18:30:29.277Z,5.73
2023-03-18T18:32:59.035Z,6.70
2023-03-18T18:35:27.346Z,9.47
2023-03-18T18:37:57.556Z,5.03
2023-03-18T18:40:27.312Z,9.13
2023-03-18T18:42:56.136Z,6.53
2023-03-18T18:45:25.257Z,6.33
2023-03-18T18:47:53.637Z,5.50
2023-03-18T18:50:29.142Z,12.50
2023-03-18T18:52:59.141Z,10.17
2023-03-18T18:55:27.608Z,7.53
2023-03-18T18:57:56.014Z,10.07
2023-03-18T19:00:25.504Z,9.20
2023-03-18T19:02:59.583Z,10.57
2023-03-18T19:05:28.544Z,8.70
2023-03-18T19:07:59.101Z,8.77
2023-03-18T19:10:28.627Z,8.53
2023-03-18T19:12:57.099Z,8.77
2023-03-18T19:15:27.491Z,13.57
2023-03-18T19:17:56.642Z,15.10
2023-03-18T19:20:31.005Z,14.43
2023-03-18T19:23:00.997Z,11.83
2023-03-18T19:25:29.820Z,15.77
2023-03-18T19:28:00.471Z,13.33
2023-03-18T19:30:28.692Z,12.73
2023-03-18T19:32:59.868Z,13.40
2023-03-18T19:35:28.162Z,13.80
2023-03-18T19:37:57.640Z,11.17
2023-03-18T19:40:30.927Z,12.53
2023-03-18T19:42:59.657Z,14.37
2023-03-18T19:45:28.694Z,13.20
2023-03-18T19:47:57.465Z,13.90
2023-03-18T19:50:26.028Z,11.93
2023-03-18T19:52:59.283Z,12.40
2023-03-18T19:55:30.079Z,10.10
2023-03-18T19:57:58.937Z,10.13
2023-03-18T20:00:27.352Z,12.23
2023-03-18T20:02:55.978Z,11.33
2023-03-18T20:05:30.790Z,9.37
2023-03-18T20:07:59.584Z,10.63
2023-03-18T20:10:30.165Z,17.10
2023-03-18T20:13:01.660Z,17.00
2023-03-18T20:15:30.427Z,12.27
2023-03-18T20:18:00.991Z,11.77
2023-03-18T20:20:34.898Z,15.93
2023-03-18T20:23:06.550Z,19.30
2023-03-18T20:25:38.627Z,20.80
2023-03-18T20:28:07.959Z,15.77
2023-03-18T20:30:38.954Z,18.97
2023-03-18T20:33:08.634Z,25.63
2023-03-18T20:35:39.897Z,31.57
2023-03-18T20:38:17.085Z,21.20
2023-03-18T20:40:49.256Z,28.53
2023-03-18T20:43:20.427Z,15.83
2023-03-18T20:45:49.218Z,16.50
2023-03-18T20:48:20.074Z,16.90
2023-03-18T20:50:48.654Z,15.50
2023-03-18T20:53:21.935Z,18.37
2023-03-18T20:55:53.008Z,21.37
2023-03-18T20:58:22.476Z,12.70
2023-03-18T21:00:50.945Z,15.30
2023-03-18T21:03:24.769Z,14.40
2023-03-18T21:05:56.921Z,8.77
2023-03-18T21:08:26.148Z,9.93
2023-03-18T21:11:01.390Z,10.10
2023-03-18T21:13:32.845Z,10.53
2023-03-18T21:16:02.197Z,10.70
2023-03-18T21:18:31.148Z,7.57
2023-03-18T21:20:59.891Z,8.90
2023-03-18T21:23:30.149Z,10.53
2023-03-18T21:26:00.289Z,10.33
2023-03-18T21:28:31.664Z,8.93
2023-03-18T21:31:05.013Z,9.17
2023-03-18T21:33:35.801Z,9.90
2023-03-18T21:36:04.722Z,8.60
2023-03-18T21:38:35.064Z,10.00
2023-03-18T21:41:05.094Z,8.20
2023-03-18T21:43:38.481Z,8.63
2023-03-18T21:46:11.870Z,8.17
2023-03-18T21:48:39.906Z,13.60
2023-03-18T21:51:08.993Z,8.03
2023-03-18T21:53:39.018Z,9.50
2023-03-18T21:56:12.000Z,11.90
2023-03-18T21:58:40.750Z,9.03
2023-03-18T22:01:16.999Z,11.00
2023-03-18T22:03:46.720Z,10.73
2023-03-18T22:06:17.288Z,10.03
2023-03-18T22:08:46.085Z,9.40
2023-03-18T22:11:30.796Z,12.63
2023-03-18T22:13:59.156Z,11.73
2023-03-18T22:16:27.697Z,11.67
2023-03-18T22:18:56.241Z,8.47
2023-03-18T22:21:26.883Z,10.07
2023-03-18T22:23:58.176Z,10.00
2023-03-18T22:26:28.583Z,9.97
2023-03-18T22:28:57.131Z,9.83
2023-03-18T22:31:27.642Z,11.20
2023-03-18T22:33:56.407Z,11.13
2023-03-18T22:36:25.708Z,15.67
2023-03-18T22:38:55.540Z,8.60
2023-03-18T22:41:29.507Z,12.10
2023-03-18T22:44:03.721Z,11.20
2023-03-18T22:46:32.220Z,10.73
2023-03-18T22:49:07.501Z,12.80
2023-03-18T22:51:46.730Z,10.13
2023-03-18T22:54:19.492Z,9.53
2023-03-18T22:56:50.087Z,11.17
2023-03-18T22:59:19.809Z,10.33
2023-03-18T23:01:48.067Z,10.27
2023-03-18T23:04:17.974Z,9.70
2023-03-18T23:06:47.602Z,12.77
2023-03-18T23:09:17.634Z,11.50
2023-03-18T23:11:46.534Z,10.63
2023-03-18T23:14:15.639Z,10.73
2023-03-18T23:16:45.982Z,14.03
2023-03-18T23:19:14.660Z,11.77
2023-03-18T23:21:43.117Z,11.63
2023-03-18T23:24:12.132Z,13.77
2023-03-18T23:26:41.525Z,8.60
2023-03-18T23:29:09.944Z,12.23
2023-03-18T23:31:38.313Z,9.67
2023-03-18T23:34:08.164Z,11.87
2023-03-18T23:36:37.674Z,11.67
2023-03-18T23:39:08.887Z,10.27
2023-03-18T23:41:37.100Z,13.60
2023-03-18T23:44:05.914Z,11.43
2023-03-18T23:46:35.360Z,11.10
2023-03-18T23:49:03.765Z,9.50
2023-03-18T23:51:33.812Z,11.70
2023-03-18T23:54:02.015Z,15.20
2023-03-18T23:56:30.423Z,13.30
2023-03-18T23:58:58.526Z,12.80
